Terminal Aerodrome Forecast
Issued by NWS Sioux Falls, SD

Home | Current Version | Previous Version | Text Only | Print | Product List | Glossary Off
Versions: 1 2 3 4 5 6 7 8 9 10 11 12 13 14 15 16 17 18 19 20 21 22

176
FTUS43 KFSD 092320
TAFHON
TAF
KHON 092320Z 1000/1024 VRB04KT P6SM OVC070
     FM101000 13008KT 4SM -SN OVC030
      TEMPO 1012/1015 2SM -SN OVC015
     FM101800 13010KT 6SM BR OVC020=

USA.gov is the U.S. government's official web portal to all federal, state and local government web resources and services.